Time;durP1;ratioP1;P1;durP2;ratioP2;P2;SDS_P1;SDS_P2;PMS_P1;PMS_P2;Temp;Humidity;BMP_temperature;BMP_pressure;BME280_temperature;BME280_humidity;BME280_pressure;Samples;Min_cycle;Max_cycle;Signal;HPM_P1;HPM_P2
2023/05/24 00:01:24;;;;;;;9.02;6.78;;;14.30;99.90;;;;;;5055522;28;20029;-74
2023/05/24 00:03:53;;;;;;;8.77;6.53;;;14.30;99.90;;;;;;5055354;28;20393;-73
2023/05/24 00:06:19;;;;;;;9.27;7.10;;;14.30;99.90;;;;;;5055363;28;20033;-73
2023/05/24 00:08:46;;;;;;;12.18;8.38;;;14.30;99.90;;;;;;5055656;28;20028;-74
2023/05/24 00:11:12;;;;;;;10.18;7.65;;;14.20;99.90;;;;;;5053899;28;20116;-74
2023/05/24 00:13:37;;;;;;;11.15;8.10;;;14.20;99.90;;;;;;5055250;28;20095;-74
2023/05/24 00:16:03;;;;;;;10.82;7.63;;;14.20;99.90;;;;;;5055125;28;20120;-74
2023/05/24 00:18:30;;;;;;;9.35;7.00;;;14.10;99.90;;;;;;5055008;28;20033;-74
2023/05/24 00:20:57;;;;;;;11.07;6.88;;;14.10;99.90;;;;;;5054777;28;20380;-74
2023/05/24 00:23:24;;;;;;;10.48;6.88;;;14.10;99.90;;;;;;5055133;28;20025;-74
2023/05/24 00:25:52;;;;;;;9.38;6.43;;;14.10;99.90;;;;;;5054962;28;20029;-74
2023/05/24 00:28:18;;;;;;;8.85;6.88;;;14.20;99.90;;;;;;5055562;28;20163;-74
2023/05/24 00:30:44;;;;;;;10.18;7.20;;;14.20;99.90;;;;;;5055080;28;20120;-74
2023/05/24 00:33:09;;;;;;;9.68;7.05;;;14.20;99.90;;;;;;5054883;28;20033;-74
2023/05/24 00:35:35;;;;;;;9.20;6.63;;;14.20;99.90;;;;;;5037188;28;20025;-74
2023/05/24 00:38:01;;;;;;;8.23;6.32;;;14.20;99.90;;;;;;5054846;28;20032;-74
2023/05/24 00:40:26;;;;;;;8.55;6.22;;;14.30;99.90;;;;;;5054811;28;20025;-74
2023/05/24 00:42:52;;;;;;;14.73;6.68;;;14.30;99.90;;;;;;5054699;28;20116;-74
2023/05/24 00:45:18;;;;;;;8.13;5.65;;;14.30;99.90;;;;;;5054561;28;20489;-74
2023/05/24 00:47:44;;;;;;;10.13;6.80;;;14.30;99.90;;;;;;5053456;28;20071;-73
2023/05/24 00:50:13;;;;;;;12.55;8.30;;;14.30;99.90;;;;;;5054523;28;20544;-74
2023/05/24 00:52:40;;;;;;;11.10;7.68;;;14.20;99.90;;;;;;5054807;28;20370;-73
2023/05/24 00:55:07;;;;;;;11.32;7.57;;;14.10;99.90;;;;;;5054436;28;20021;-73
2023/05/24 00:57:34;;;;;;;14.38;8.93;;;14.00;99.90;;;;;;5054230;28;20032;-74
2023/05/24 01:00:01;;;;;;;12.32;8.57;;;13.90;99.90;;;;;;5054779;28;20431;-73
2023/05/24 01:02:27;;;;;;;10.98;8.15;;;13.80;99.90;;;;;;5054255;28;20025;-73
2023/05/24 01:04:52;;;;;;;11.43;7.63;;;13.70;99.90;;;;;;5054928;28;20503;-73
2023/05/24 01:07:40;;;;;;;10.63;8.20;;;13.70;99.90;;;;;;5053968;28;20037;-73
2023/05/24 01:10:30;;;;;;;11.55;8.55;;;13.60;99.90;;;;;;5054172;28;20032;-73
2023/05/24 01:13:22;;;;;;;9.95;7.30;;;13.50;99.90;;;;;;5054179;28;20047;-73
2023/05/24 01:16:35;;;;;;;10.82;7.97;;;13.50;99.90;;;;;;5054005;28;20029;-73
2023/05/24 01:19:10;;;;;;;11.68;7.65;;;13.40;99.90;;;;;;5044833;28;20029;-73
2023/05/24 01:22:00;;;;;;;10.35;7.38;;;13.40;99.90;;;;;;5054455;28;20383;-73
2023/05/24 01:24:41;;;;;;;10.30;6.95;;;13.40;99.90;;;;;;5053907;28;20028;-73
2023/05/24 01:27:17;;;;;;;8.80;6.68;;;13.30;99.90;;;;;;5053972;28;20017;-73
2023/05/24 01:29:43;;;;;;;9.75;7.18;;;13.40;99.90;;;;;;5054132;28;20036;-73
2023/05/24 01:32:09;;;;;;;9.55;6.70;;;13.40;99.90;;;;;;5052904;28;20025;-73
2023/05/24 01:34:34;;;;;;;8.25;6.50;;;13.40;99.90;;;;;;5053537;28;20111;-73
2023/05/24 01:37:00;;;;;;;9.38;6.60;;;13.50;99.90;;;;;;5053747;28;20384;-73
2023/05/24 01:39:28;;;;;;;8.55;5.90;;;13.60;99.90;;;;;;5053977;28;20037;-73
2023/05/24 01:42:21;;;;;;;12.00;6.30;;;13.60;99.90;;;;;;5053926;28;20040;-73
2023/05/24 01:45:15;;;;;;;9.88;6.22;;;13.60;99.90;;;;;;5046965;28;20021;-73
2023/05/24 01:48:07;;;;;;;8.40;6.20;;;13.70;99.90;;;;;;5033451;28;20033;-73
2023/05/24 01:50:56;;;;;;;7.68;5.68;;;13.80;99.90;;;;;;5033617;28;20017;-73
2023/05/24 01:53:27;;;;;;;8.13;6.15;;;13.70;99.90;;;;;;5033891;28;20412;-73
2023/05/24 01:55:56;;;;;;;8.23;6.00;;;13.70;99.90;;;;;;5034070;28;20472;-73
2023/05/24 01:58:24;;;;;;;9.23;6.97;;;13.70;99.90;;;;;;5033479;28;20048;-73
2023/05/24 02:00:51;;;;;;;9.63;6.50;;;13.60;99.90;;;;;;5033784;28;20033;-73
2023/05/24 02:03:17;;;;;;;7.43;5.53;;;13.60;99.90;;;;;;5033402;28;20046;-73
2023/05/24 02:05:44;;;;;;;9.52;5.57;;;13.50;99.90;;;;;;5033468;28;20029;-73
2023/05/24 02:08:11;;;;;;;8.88;6.15;;;13.50;99.90;;;;;;5033403;28;20036;-73
2023/05/24 02:10:38;;;;;;;7.80;6.25;;;13.50;99.90;;;;;;5033335;28;20113;-73
2023/05/24 02:13:05;;;;;;;8.57;5.38;;;13.50;99.90;;;;;;5033359;28;20080;-73
2023/05/24 02:15:31;;;;;;;8.73;5.65;;;13.50;99.90;;;;;;5026013;28;20030;-73
2023/05/24 02:17:57;;;;;;;7.30;5.55;;;13.50;99.90;;;;;;5033304;28;20041;-74
2023/05/24 02:20:22;;;;;;;7.30;5.80;;;13.50;99.90;;;;;;5033279;28;20041;-74
2023/05/24 02:22:49;;;;;;;6.80;5.15;;;13.50;99.90;;;;;;5032004;28;20030;-73
2023/05/24 02:25:15;;;;;;;7.45;5.28;;;13.50;99.90;;;;;;5033179;28;20021;-73
2023/05/24 02:27:41;;;;;;;8.10;5.18;;;13.50;99.90;;;;;;5049321;28;20037;-73
2023/05/24 02:30:07;;;;;;;7.65;5.20;;;13.50;99.90;;;;;;5033142;28;20079;-73
2023/05/24 02:32:33;;;;;;;8.23;5.07;;;13.50;99.90;;;;;;5031789;28;20026;-73
2023/05/24 02:35:00;;;;;;;8.10;5.25;;;13.50;99.90;;;;;;5033288;28;20087;-73
2023/05/24 02:37:26;;;;;;;7.50;5.25;;;13.50;99.90;;;;;;5031875;28;20029;-73
2023/05/24 02:39:52;;;;;;;7.00;4.93;;;13.60;99.90;;;;;;5031988;28;20499;-73
2023/05/24 02:42:18;;;;;;;7.68;5.28;;;13.60;99.90;;;;;;5033068;28;20037;-73
2023/05/24 02:44:46;;;;;;;6.07;4.88;;;13.60;99.90;;;;;;5041981;28;20032;-73
2023/05/24 02:47:12;;;;;;;6.38;4.38;;;13.60;99.90;;;;;;5057420;28;20552;-72
2023/05/24 02:49:38;;;;;;;7.75;5.15;;;13.50;99.90;;;;;;5056659;28;20438;-72
2023/05/24 02:52:04;;;;;;;6.63;5.30;;;13.60;99.90;;;;;;5057383;28;20083;-72
2023/05/24 02:54:30;;;;;;;6.65;4.57;;;13.60;99.90;;;;;;5055572;28;20033;-72
2023/05/24 02:56:56;;;;;;;6.95;4.30;;;13.60;99.90;;;;;;5057119;28;20027;-72
2023/05/24 02:59:22;;;;;;;6.55;4.60;;;13.60;99.90;;;;;;5056899;28;20045;-72
2023/05/24 03:01:48;;;;;;;6.53;4.60;;;13.60;99.90;;;;;;5056660;28;20116;-72
2023/05/24 03:04:14;;;;;;;6.80;5.15;;;13.60;99.90;;;;;;5056599;28;20111;-72
2023/05/24 03:06:40;;;;;;;7.78;5.00;;;13.70;99.90;;;;;;5056730;28;20040;-72
2023/05/24 03:09:06;;;;;;;8.38;4.97;;;13.60;99.90;;;;;;5056495;28;20090;-72
2023/05/24 03:11:31;;;;;;;8.55;5.63;;;13.70;99.90;;;;;;5056501;28;20029;-72
2023/05/24 03:13:57;;;;;;;8.27;5.70;;;13.60;99.90;;;;;;5056743;28;20037;-72
2023/05/24 03:16:24;;;;;;;7.00;5.40;;;13.60;99.90;;;;;;5055130;28;20017;-72
2023/05/24 03:18:49;;;;;;;7.72;5.75;;;13.60;99.90;;;;;;5056107;28;20021;-72
2023/05/24 03:21:16;;;;;;;7.40;6.05;;;13.60;99.90;;;;;;5056295;28;20049;-72
2023/05/24 03:23:42;;;;;;;8.65;5.90;;;13.60;99.90;;;;;;5056417;28;20522;-72
2023/05/24 03:26:08;;;;;;;7.95;5.82;;;13.60;99.90;;;;;;5056108;28;20115;-72
2023/05/24 03:28:34;;;;;;;7.30;5.38;;;13.60;99.90;;;;;;5056471;28;20060;-72
2023/05/24 03:31:00;;;;;;;7.20;5.72;;;13.60;99.90;;;;;;5056335;28;20063;-72
2023/05/24 03:33:25;;;;;;;8.07;5.80;;;13.50;99.90;;;;;;5055880;28;20479;-73
2023/05/24 03:35:51;;;;;;;8.35;6.60;;;13.50;99.90;;;;;;5056255;28;20541;-72
2023/05/24 03:38:17;;;;;;;7.13;5.47;;;13.50;99.90;;;;;;5056008;28;20029;-73
2023/05/24 03:40:42;;;;;;;8.15;5.88;;;13.50;99.90;;;;;;5056267;28;20439;-73
2023/05/24 03:43:08;;;;;;;7.80;5.55;;;13.50;99.90;;;;;;5056423;28;20556;-73
2023/05/24 03:45:34;;;;;;;8.07;5.85;;;13.40;99.90;;;;;;5055705;28;20507;-73
2023/05/24 03:47:59;;;;;;;8.13;6.20;;;13.50;99.90;;;;;;5055543;28;20025;-72
2023/05/24 03:50:25;;;;;;;9.02;6.35;;;13.40;99.90;;;;;;5056132;28;20392;-72
2023/05/24 03:52:52;;;;;;;8.43;6.40;;;13.40;99.90;;;;;;5056246;28;20029;-72
2023/05/24 03:55:17;;;;;;;8.75;6.10;;;13.40;99.90;;;;;;5054539;28;20557;-72
2023/05/24 03:57:43;;;;;;;8.65;6.45;;;13.50;99.90;;;;;;5054398;28;20080;-72
2023/05/24 04:00:09;;;;;;;7.57;6.25;;;13.50;99.90;;;;;;5055698;28;20063;-72
2023/05/24 04:02:38;;;;;;;9.20;6.97;;;13.50;99.90;;;;;;5056311;28;20379;-72
2023/05/24 04:05:09;;;;;;;9.13;6.68;;;13.40;99.90;;;;;;5055194;28;20040;-72
2023/05/24 04:07:38;;;;;;;14.63;10.68;;;13.40;99.90;;;;;;5055769;28;20032;-72
2023/05/24 04:10:06;;;;;;;39.28;23.23;;;13.40;99.90;;;;;;5055256;28;20041;-72
2023/05/24 04:12:32;;;;;;;32.40;22.17;;;13.40;99.90;;;;;;5055849;28;20028;-72
2023/05/24 04:14:59;;;;;;;26.50;18.45;;;13.40;99.90;;;;;;5055495;28;20573;-72
2023/05/24 04:17:25;;;;;;;16.88;12.32;;;13.40;99.90;;;;;;5055237;28;20396;-72
2023/05/24 04:19:52;;;;;;;22.73;15.75;;;13.40;99.90;;;;;;5054948;28;20036;-72
2023/05/24 04:22:18;;;;;;;33.65;21.70;;;13.40;99.90;;;;;;5055150;28;20101;-72
2023/05/24 04:24:44;;;;;;;21.83;15.63;;;13.40;99.90;;;;;;5055072;28;20108;-72
2023/05/24 04:27:10;;;;;;;15.20;10.77;;;13.30;99.90;;;;;;5055000;28;20059;-73
2023/05/24 04:29:38;;;;;;;13.93;9.43;;;13.40;99.90;;;;;;5054887;28;20028;-72
2023/05/24 04:32:05;;;;;;;11.30;8.65;;;13.30;99.90;;;;;;5054969;28;20082;-72
2023/05/24 04:34:32;;;;;;;10.68;8.52;;;13.30;99.90;;;;;;5053509;28;20104;-72
2023/05/24 04:36:59;;;;;;;10.68;8.15;;;13.30;99.90;;;;;;5054859;28;20400;-72
2023/05/24 04:39:25;;;;;;;10.95;8.05;;;13.30;99.90;;;;;;5054757;28;20104;-72
2023/05/24 04:41:51;;;;;;;13.43;9.05;;;13.30;99.90;;;;;;5055488;28;20048;-71
2023/05/24 04:44:18;;;;;;;12.50;8.45;;;13.30;99.90;;;;;;5054424;28;20032;-71
2023/05/24 04:46:44;;;;;;;10.07;7.97;;;13.30;99.90;;;;;;5052743;28;20032;-71
2023/05/24 04:49:10;;;;;;;39.28;21.92;;;13.20;99.90;;;;;;5052244;28;20345;-72
2023/05/24 04:51:37;;;;;;;70.68;40.92;;;13.20;99.90;;;;;;5052829;28;20021;-72
2023/05/24 04:54:07;;;;;;;53.00;31.20;;;13.20;99.90;;;;;;5052503;28;20028;-71
2023/05/24 04:56:37;;;;;;;39.70;27.60;;;13.20;99.90;;;;;;5037222;28;20393;-71
2023/05/24 04:59:09;;;;;;;28.77;21.65;;;13.20;99.90;;;;;;5050019;28;20694;-71
2023/05/24 05:01:35;;;;;;;17.05;13.45;;;13.20;99.90;;;;;;5033640;28;20034;-72
2023/05/24 05:04:03;;;;;;;15.63;10.70;;;13.30;99.90;;;;;;5033216;28;20048;-71
2023/05/24 05:06:29;;;;;;;15.88;12.60;;;13.20;99.90;;;;;;5033910;28;20017;-71
2023/05/24 05:08:54;;;;;;;13.95;11.15;;;13.20;99.90;;;;;;5034198;28;20091;-71
2023/05/24 05:11:20;;;;;;;14.55;11.13;;;13.20;99.90;;;;;;5034381;28;20041;-71
2023/05/24 05:13:45;;;;;;;11.68;9.15;;;13.20;99.90;;;;;;5034791;28;20072;-71
2023/05/24 05:16:11;;;;;;;13.80;8.75;;;13.20;99.90;;;;;;5052173;28;20037;-71
2023/05/24 05:18:37;;;;;;;21.23;11.95;;;13.20;99.90;;;;;;5053937;28;20427;-71
2023/05/24 05:21:03;;;;;;;21.33;11.10;;;13.20;99.90;;;;;;5054031;28;20036;-71
2023/05/24 05:23:29;;;;;;;30.55;16.98;;;13.10;99.90;;;;;;5054296;28;20025;-71
2023/05/24 05:25:55;;;;;;;119.00;53.78;;;13.10;99.90;;;;;;5054385;28;20029;-71
2023/05/24 05:28:21;;;;;;;36.28;20.75;;;13.10;99.90;;;;;;5053903;28;20099;-71
2023/05/24 05:30:46;;;;;;;10.77;8.27;;;13.00;99.90;;;;;;5069185;28;20029;-71
2023/05/24 05:33:12;;;;;;;10.55;7.97;;;13.10;99.90;;;;;;5053872;28;20032;-71
2023/05/24 05:35:38;;;;;;;17.13;13.25;;;13.00;99.90;;;;;;5052564;28;20031;-71
2023/05/24 05:38:03;;;;;;;12.70;10.77;;;13.00;99.90;;;;;;5053758;28;20104;-71
2023/05/24 05:40:29;;;;;;;9.98;7.78;;;13.00;99.90;;;;;;5053668;28;20033;-71
2023/05/24 05:42:55;;;;;;;10.48;8.35;;;13.00;99.90;;;;;;5053670;28;20033;-71
2023/05/24 05:45:20;;;;;;;10.32;8.43;;;13.00;99.90;;;;;;5053467;28;20035;-71
2023/05/24 05:47:46;;;;;;;8.75;6.40;;;13.00;99.90;;;;;;5053596;28;20104;-71
2023/05/24 05:50:11;;;;;;;12.43;9.10;;;13.00;99.90;;;;;;5053243;28;20031;-70
2023/05/24 05:52:37;;;;;;;8.98;6.05;;;12.90;99.90;;;;;;5052501;28;20025;-73
2023/05/24 05:55:03;;;;;;;7.93;6.30;;;12.90;99.90;;;;;;5053692;28;20035;-73
2023/05/24 05:57:29;;;;;;;8.27;6.47;;;12.80;99.90;;;;;;5053604;28;20082;-73
2023/05/24 05:59:57;;;;;;;11.23;7.82;;;12.80;99.90;;;;;;5053996;28;20037;-73
2023/05/24 06:02:23;;;;;;;20.25;12.82;;;12.80;99.90;;;;;;5052920;28;20463;-73
2023/05/24 06:04:49;;;;;;;12.55;9.18;;;12.80;99.90;;;;;;5053265;28;20092;-73
2023/05/24 06:07:14;;;;;;;10.18;6.93;;;12.70;99.90;;;;;;5053568;28;20037;-72
2023/05/24 06:09:40;;;;;;;18.10;11.35;;;12.70;99.90;;;;;;5053251;28;20029;-73
2023/05/24 06:12:06;;;;;;;18.02;11.07;;;12.70;99.90;;;;;;5053302;28;20036;-73
2023/05/24 06:14:33;;;;;;;16.27;12.07;;;12.60;99.90;;;;;;5053443;28;20479;-73
2023/05/24 06:16:59;;;;;;;12.80;7.15;;;12.60;99.90;;;;;;5053256;28;20025;-73
2023/05/24 06:19:25;;;;;;;9.05;6.35;;;12.60;99.90;;;;;;5058215;28;20108;-73
2023/05/24 06:21:51;;;;;;;10.13;7.95;;;12.60;99.90;;;;;;5058556;28;20025;-73
2023/05/24 06:24:21;;;;;;;11.50;7.97;;;12.60;99.90;;;;;;5060098;28;20391;-73
2023/05/24 06:26:51;;;;;;;10.13;8.85;;;12.60;99.90;;;;;;5058617;28;20100;-73
2023/05/24 06:29:21;;;;;;;9.43;6.83;;;12.60;99.90;;;;;;5059820;28;20021;-73
2023/05/24 06:31:47;;;;;;;8.52;6.57;;;12.70;99.90;;;;;;5059753;28;20025;-73
2023/05/24 06:34:17;;;;;;;7.07;5.40;;;12.70;99.90;;;;;;5059795;28;20488;-73
2023/05/24 06:36:46;;;;;;;8.43;6.63;;;12.70;99.90;;;;;;5060694;28;20408;-73
2023/05/24 06:39:15;;;;;;;9.88;6.18;;;12.70;99.90;;;;;;5059784;28;20282;-73
2023/05/24 06:41:42;;;;;;;9.23;6.63;;;12.70;99.90;;;;;;5059735;28;20480;-73
2023/05/24 06:44:08;;;;;;;7.80;5.82;;;12.80;99.90;;;;;;5059573;28;20091;-73
2023/05/24 06:46:33;;;;;;;6.60;5.13;;;12.80;99.90;;;;;;5059901;28;20021;-73
2023/05/24 06:48:59;;;;;;;7.20;5.20;;;12.80;99.90;;;;;;5059457;28;20096;-73
2023/05/24 06:51:25;;;;;;;6.57;5.13;;;12.80;99.90;;;;;;5060098;28;20056;-73
2023/05/24 06:53:51;;;;;;;6.18;5.15;;;12.80;99.90;;;;;;5059636;28;20021;-73
2023/05/24 06:56:17;;;;;;;6.95;5.07;;;12.80;99.90;;;;;;5059546;28;20029;-73
2023/05/24 06:58:43;;;;;;;8.80;4.93;;;12.90;99.90;;;;;;5059588;28;20090;-73
2023/05/24 07:01:09;;;;;;;8.35;5.53;;;12.90;99.90;;;;;;5059584;28;20029;-73
2023/05/24 07:03:35;;;;;;;7.28;5.72;;;12.90;99.90;;;;;;5059259;28;20032;-73
2023/05/24 07:06:00;;;;;;;9.25;5.90;;;13.10;99.90;;;;;;5059582;28;20025;-73
2023/05/24 07:08:26;;;;;;;10.18;4.82;;;13.10;99.90;;;;;;5059531;28;20024;-73
2023/05/24 07:10:55;;;;;;;6.95;5.30;;;13.20;99.90;;;;;;5041556;28;20065;-73
2023/05/24 07:13:22;;;;;;;8.30;4.82;;;13.20;99.90;;;;;;5059784;28;20032;-73
2023/05/24 07:15:48;;;;;;;6.60;4.50;;;13.30;99.90;;;;;;5059335;28;20075;-73
2023/05/24 07:18:14;;;;;;;7.40;5.15;;;13.30;99.90;;;;;;5059399;28;20056;-73
2023/05/24 07:20:40;;;;;;;5.57;4.45;;;13.30;99.90;;;;;;5059117;28;20526;-73
2023/05/24 07:23:05;;;;;;;5.95;4.53;;;13.40;99.90;;;;;;5059335;28;20025;-73
2023/05/24 07:25:32;;;;;;;5.93;3.65;;;13.40;99.90;;;;;;5059293;28;20109;-73
2023/05/24 07:27:58;;;;;;;5.28;3.75;;;13.60;99.90;;;;;;5059286;28;20084;-73
2023/05/24 07:30:24;;;;;;;4.93;3.40;;;13.70;99.90;;;;;;5057270;28;20112;-73
2023/05/24 07:32:50;;;;;;;4.50;3.25;;;13.70;99.90;;;;;;5056077;28;20504;-73
2023/05/24 07:35:16;;;;;;;6.93;4.10;;;13.70;99.90;;;;;;5055708;28;20090;-73
2023/05/24 07:37:42;;;;;;;6.43;4.50;;;13.70;99.90;;;;;;5056574;28;20484;-73
2023/05/24 07:40:11;;;;;;;9.70;6.57;;;13.70;99.90;;;;;;5055976;28;20033;-73
2023/05/24 07:42:37;;;;;;;9.23;5.50;;;13.80;99.90;;;;;;5055933;28;20033;-73
2023/05/24 07:45:10;;;;;;;5.00;3.58;;;13.80;99.90;;;;;;5055937;28;20029;-73
2023/05/24 07:47:37;;;;;;;4.13;2.58;;;13.90;99.90;;;;;;5056167;28;20040;-73
2023/05/24 07:50:03;;;;;;;20.65;10.43;;;13.90;99.90;;;;;;5055436;28;20024;-73
2023/05/24 07:52:30;;;;;;;9.45;4.70;;;14.00;99.90;;;;;;5055773;28;20028;-73
2023/05/24 07:54:55;;;;;;;4.25;2.75;;;13.90;99.90;;;;;;5055629;28;20365;-73
2023/05/24 07:57:21;;;;;;;5.70;3.38;;;13.90;99.90;;;;;;5054508;28;20036;-73
2023/05/24 07:59:48;;;;;;;9.57;5.57;;;13.90;99.90;;;;;;5055637;28;20060;-73
2023/05/24 08:02:15;;;;;;;4.80;3.30;;;13.90;99.90;;;;;;5055548;28;20029;-73
2023/05/24 08:04:41;;;;;;;5.18;3.10;;;13.90;99.90;;;;;;5055343;28;20028;-73
2023/05/24 08:07:08;;;;;;;3.80;2.80;;;13.90;99.90;;;;;;5055991;28;20027;-73
2023/05/24 08:09:35;;;;;;;4.70;3.13;;;14.00;99.90;;;;;;5054214;28;20053;-73
2023/05/24 08:12:05;;;;;;;4.15;2.85;;;14.00;99.90;;;;;;5055899;28;20447;-73
2023/05/24 08:14:31;;;;;;;16.15;7.55;;;14.00;99.90;;;;;;5055938;28;20028;-73
2023/05/24 08:16:56;;;;;;;11.20;5.32;;;14.10;99.90;;;;;;5055263;28;20468;-73
2023/05/24 08:19:22;;;;;;;19.17;8.00;;;14.10;99.90;;;;;;5055273;28;20045;-73
2023/05/24 08:21:48;;;;;;;52.55;23.45;;;14.10;99.90;;;;;;5055764;28;20021;-73
2023/05/24 08:24:14;;;;;;;24.88;12.68;;;14.20;99.90;;;;;;5055052;28;20029;-73
2023/05/24 08:26:40;;;;;;;11.80;6.70;;;14.30;99.90;;;;;;5055148;28;20472;-73
2023/05/24 08:29:06;;;;;;;4.35;3.05;;;14.30;99.90;;;;;;5055064;28;20025;-73
2023/05/24 08:31:32;;;;;;;71.03;31.60;;;14.40;99.90;;;;;;5053923;28;20099;-72
2023/05/24 08:33:58;;;;;;;11.60;5.25;;;14.40;99.90;;;;;;5055006;28;20025;-73
2023/05/24 08:36:24;;;;;;;4.88;3.03;;;14.50;99.90;;;;;;5054867;28;20079;-73
2023/05/24 08:38:49;;;;;;;4.60;3.47;;;14.50;99.90;;;;;;5053642;28;20106;-73
2023/05/24 08:41:15;;;;;;;5.25;3.63;;;14.50;99.90;;;;;;5054574;28;20021;-73
2023/05/24 08:43:42;;;;;;;4.78;3.33;;;14.50;99.90;;;;;;5054783;28;20107;-72
2023/05/24 08:46:09;;;;;;;4.32;3.10;;;14.50;99.90;;;;;;5054632;28;20384;-73
2023/05/24 08:48:45;;;;;;;6.07;3.17;;;14.50;99.90;;;;;;5055239;28;20033;-73
2023/05/24 08:51:11;;;;;;;5.25;3.00;;;14.60;99.90;;;;;;5054573;28;20021;-73
2023/05/24 08:53:38;;;;;;;4.38;3.10;;;14.70;99.90;;;;;;5055434;28;20025;-73
2023/05/24 08:56:05;;;;;;;5.50;2.90;;;14.60;99.90;;;;;;5053526;28;20057;-72
2023/05/24 08:58:31;;;;;;;7.15;3.08;;;14.70;99.90;;;;;;5036573;28;20079;-72
2023/05/24 09:00:58;;;;;;;8.90;3.08;;;14.70;99.90;;;;;;5054540;28;20392;-72
2023/05/24 09:03:25;;;;;;;3.90;2.90;;;14.80;99.90;;;;;;5054630;28;20033;-72
2023/05/24 09:05:52;;;;;;;5.07;3.10;;;14.80;99.90;;;;;;5054106;28;20033;-72
2023/05/24 09:08:19;;;;;;;5.10;3.30;;;14.80;99.90;;;;;;5054254;28;20029;-73
2023/05/24 09:10:46;;;;;;;3.97;2.95;;;14.70;99.90;;;;;;5052819;28;20037;-73
2023/05/24 09:13:14;;;;;;;4.88;3.50;;;14.70;99.90;;;;;;5054165;28;20029;-73
2023/05/24 09:15:40;;;;;;;5.78;3.60;;;14.70;99.90;;;;;;5054006;28;20064;-73
2023/05/24 09:18:05;;;;;;;7.22;3.67;;;14.70;99.90;;;;;;5054210;28;20056;-73
2023/05/24 09:20:31;;;;;;;6.28;3.60;;;14.60;99.90;;;;;;5053990;28;20120;-73
2023/05/24 09:22:59;;;;;;;5.70;3.35;;;14.60;99.90;;;;;;5052759;28;20024;-73
2023/05/24 09:25:27;;;;;;;7.35;3.92;;;14.60;99.90;;;;;;5053892;28;20057;-73
2023/05/24 09:27:53;;;;;;;4.72;3.35;;;14.50;99.90;;;;;;5053946;28;20049;-73
2023/05/24 09:30:19;;;;;;;7.18;4.30;;;14.50;99.90;;;;;;5053822;28;20114;-73
2023/05/24 09:32:59;;;;;;;7.97;5.35;;;14.40;99.90;;;;;;5054125;28;20063;-73
2023/05/24 09:35:27;;;;;;;6.72;3.95;;;14.50;99.90;;;;;;5053781;28;20052;-73
2023/05/24 09:37:58;;;;;;;4.97;3.80;;;14.60;99.90;;;;;;5054030;28;20048;-73
2023/05/24 09:40:25;;;;;;;6.72;3.80;;;14.70;99.90;;;;;;5053884;28;20103;-73
2023/05/24 09:43:08;;;;;;;10.60;6.97;;;14.70;99.90;;;;;;5053661;28;20561;-73
2023/05/24 09:45:48;;;;;;;8.05;5.03;;;14.80;99.90;;;;;;5053587;28;20033;-73
2023/05/24 09:48:16;;;;;;;7.05;4.40;;;14.90;99.90;;;;;;5053533;28;20032;-72
2023/05/24 09:50:46;;;;;;;5.28;3.60;;;14.90;99.90;;;;;;5053331;28;20425;-72
2023/05/24 09:53:11;;;;;;;5.65;3.65;;;14.90;99.90;;;;;;5053016;28;20045;-72
2023/05/24 09:55:37;;;;;;;7.22;4.57;;;14.90;99.90;;;;;;5053400;28;20061;-72
2023/05/24 09:58:07;;;;;;;4.60;3.60;;;14.90;99.90;;;;;;5053639;28;20036;-72
2023/05/24 10:00:35;;;;;;;4.07;3.28;;;14.90;99.90;;;;;;5054256;28;20384;-72
2023/05/24 10:03:09;;;;;;;11.80;3.70;;;14.80;99.90;;;;;;5053384;28;20111;-72
2023/05/24 10:05:35;;;;;;;6.57;3.75;;;14.70;99.90;;;;;;5053092;28;20021;-72
2023/05/24 10:08:03;;;;;;;5.28;3.35;;;14.70;99.90;;;;;;5053577;28;20027;-72
2023/05/24 10:10:31;;;;;;;4.30;3.35;;;14.60;99.90;;;;;;5053205;28;20510;-73
2023/05/24 10:12:58;;;;;;;6.40;3.70;;;14.60;99.90;;;;;;5053314;28;20025;-73
2023/05/24 10:15:25;;;;;;;4.85;3.20;;;14.60;99.90;;;;;;5035247;28;20220;-72
2023/05/24 10:17:55;;;;;;;5.82;3.63;;;14.60;99.90;;;;;;5053279;28;20426;-73
2023/05/24 10:20:22;;;;;;;18.23;11.43;;;14.50;99.90;;;;;;5053259;28;20021;-73
2023/05/24 10:23:02;;;;;;;7.47;4.32;;;14.50;99.90;;;;;;5053172;28;20029;-73
2023/05/24 10:25:28;;;;;;;5.28;3.70;;;14.50;99.90;;;;;;5053227;28;20472;-73
2023/05/24 10:28:02;;;;;;;4.97;3.50;;;14.40;99.90;;;;;;5053392;28;20074;-72
2023/05/24 10:30:36;;;;;;;5.70;3.88;;;14.40;99.90;;;;;;5035179;28;20032;-73
2023/05/24 10:33:06;;;;;;;4.78;3.47;;;14.30;99.90;;;;;;5053395;28;20017;-72
2023/05/24 10:35:32;;;;;;;7.45;4.10;;;14.30;99.90;;;;;;5053025;28;20454;-73
2023/05/24 10:37:58;;;;;;;4.93;3.88;;;14.20;99.90;;;;;;5053006;28;20132;-72
2023/05/24 10:40:25;;;;;;;6.05;4.32;;;14.20;99.90;;;;;;5053324;28;20496;-72
2023/05/24 10:42:53;;;;;;;4.97;3.55;;;14.20;99.90;;;;;;5053025;28;20077;-72
2023/05/24 10:45:25;;;;;;;6.10;3.72;;;14.10;99.90;;;;;;5052858;28;20025;-72
2023/05/24 10:47:51;;;;;;;7.47;4.72;;;14.10;99.90;;;;;;5052972;28;20558;-72
2023/05/24 10:50:18;;;;;;;7.80;4.75;;;14.10;99.90;;;;;;5052621;28;20040;-72
2023/05/24 10:52:44;;;;;;;7.45;4.18;;;14.10;99.90;;;;;;5052918;28;20052;-72
2023/05/24 10:55:10;;;;;;;8.00;5.10;;;14.00;99.90;;;;;;5053158;28;20022;-73
2023/05/24 10:57:37;;;;;;;8.00;5.10;;;14.00;99.90;;;;;;5053144;28;20048;-73
2023/05/24 11:00:23;;;;;;;8.23;5.28;;;13.90;99.90;;;;;;5052882;28;20032;-73
2023/05/24 11:03:05;;;;;;;7.78;4.95;;;13.90;99.90;;;;;;5052747;28;20021;-73
2023/05/24 11:05:48;;;;;;;7.25;5.18;;;13.90;99.90;;;;;;5055041;28;20032;-73
2023/05/24 11:08:14;;;;;;;8.57;5.32;;;13.90;99.90;;;;;;5056719;28;20365;-73
2023/05/24 11:10:40;;;;;;;7.05;4.90;;;14.00;99.90;;;;;;5056771;28;20029;-73
2023/05/24 11:13:08;;;;;;;7.95;5.80;;;13.90;99.90;;;;;;5056496;28;20032;-73
2023/05/24 11:15:34;;;;;;;8.80;6.00;;;13.90;99.90;;;;;;5056365;28;20263;-74
2023/05/24 11:18:07;;;;;;;6.90;5.15;;;13.90;99.90;;;;;;5056406;28;20419;-73
2023/05/24 11:20:34;;;;;;;7.63;5.32;;;13.90;99.90;;;;;;5056138;28;20021;-73
2023/05/24 11:23:02;;;;;;;7.43;5.53;;;13.90;99.90;;;;;;5056535;28;20100;-73
2023/05/24 11:25:28;;;;;;;7.25;5.57;;;13.90;99.90;;;;;;5056199;28;20036;-73
2023/05/24 11:27:57;;;;;;;8.07;5.68;;;13.90;99.90;;;;;;5056263;28;20067;-73
2023/05/24 11:30:23;;;;;;;9.50;6.00;;;13.90;99.90;;;;;;5038183;28;20366;-73
2023/05/24 11:32:49;;;;;;;8.50;6.22;;;13.90;99.90;;;;;;5056428;28;20071;-73
2023/05/24 11:35:14;;;;;;;9.27;6.28;;;13.80;99.90;;;;;;5055744;28;20021;-73
2023/05/24 11:37:41;;;;;;;9.55;7.18;;;13.90;99.90;;;;;;5056035;28;20021;-73
2023/05/24 11:40:10;;;;;;;10.85;7.00;;;13.80;99.90;;;;;;5056020;28;20103;-73
2023/05/24 11:42:38;;;;;;;12.18;6.50;;;13.80;99.90;;;;;;5056159;28;20028;-73
2023/05/24 11:45:05;;;;;;;8.45;6.53;;;13.60;99.90;;;;;;5055849;28;20028;-73
2023/05/24 11:47:35;;;;;;;9.82;6.88;;;13.50;99.90;;;;;;5055938;28;20061;-73
2023/05/24 11:50:01;;;;;;;7.70;5.68;;;13.50;99.90;;;;;;5055753;28;20032;-73
2023/05/24 11:52:26;;;;;;;10.38;7.38;;;13.40;99.90;;;;;;5055959;28;20469;-73
2023/05/24 11:54:53;;;;;;;10.13;6.90;;;13.40;99.90;;;;;;5055179;28;20029;-72
2023/05/24 11:57:31;;;;;;;10.10;6.93;;;13.40;99.90;;;;;;5044467;28;20025;-72
2023/05/24 11:59:57;;;;;;;9.20;6.65;;;13.40;99.90;;;;;;5045924;28;20037;-72
2023/05/24 12:02:23;;;;;;;9.57;6.65;;;13.30;99.90;;;;;;5036051;28;20036;-72
2023/05/24 12:04:48;;;;;;;10.40;7.07;;;13.20;99.90;;;;;;5035364;28;20029;-72
2023/05/24 12:07:17;;;;;;;10.98;7.03;;;13.20;99.90;;;;;;5040540;28;20063;-72
2023/05/24 12:09:42;;;;;;;9.00;6.95;;;13.10;99.90;;;;;;5055260;28;20370;-73
2023/05/24 12:12:08;;;;;;;11.38;7.40;;;13.10;99.90;;;;;;5054985;28;20028;-72
2023/05/24 12:14:34;;;;;;;9.38;6.30;;;13.00;99.90;;;;;;5053951;28;20033;-72
2023/05/24 12:17:00;;;;;;;9.00;5.80;;;12.90;99.90;;;;;;5054101;28;20029;-71
2023/05/24 12:19:33;;;;;;;9.13;5.82;;;12.90;99.90;;;;;;5070669;28;20538;-71
2023/05/24 12:21:59;;;;;;;6.15;4.50;;;12.90;99.90;;;;;;5055235;28;20052;-71
2023/05/24 12:24:26;;;;;;;6.63;4.70;;;12.90;99.90;;;;;;5055341;28;20033;-71
2023/05/24 12:27:00;;;;;;;7.97;5.60;;;12.90;99.90;;;;;;5055141;28;20025;-71
2023/05/24 12:29:27;;;;;;;7.30;5.00;;;12.80;99.90;;;;;;5055027;28;20013;-71
2023/05/24 12:31:53;;;;;;;8.40;5.15;;;12.70;99.90;;;;;;5055190;28;20025;-71
2023/05/24 12:34:19;;;;;;;6.68;4.72;;;12.60;99.90;;;;;;5054647;28;20025;-72
2023/05/24 12:36:46;;;;;;;7.32;4.65;;;12.60;99.90;;;;;;5054939;28;20032;-71
2023/05/24 12:39:23;;;;;;;7.55;4.63;;;12.50;99.90;;;;;;5055031;28;20033;-71
2023/05/24 12:41:55;;;;;;;7.25;5.20;;;12.40;99.90;;;;;;5053716;28;20067;-71
2023/05/24 12:44:24;;;;;;;7.68;5.22;;;12.40;99.90;;;;;;5054726;28;20079;-71
2023/05/24 12:46:54;;;;;;;6.75;4.82;;;12.50;99.90;;;;;;5054843;28;20033;-72